• Join FlightAware (Why Join?)
  • Login
  • US Flag 
10:12PM EDT


 

Airport Tracker/Info


-or-


 

Live Flight TrackerFlight Track Log ✈ FLG3735 ✈ 08-Jun-2014 ✈ KPVD - KDTW

Flight Track Log - Related Links

Times and Time Zones

All times are in EDT time to prevent confusion due to time zone crossing. See the FLG3735 flight status page for this flight to view local times or setup timezone preferences in your user account.

Time Position Orientation Groundspeed Altitude Reporting Facility
EDT Latitude Longitude Course Direction KTS MPH feet Rate Location/Type
11:18AM 41.6967 -71.5058 257° West 204 235 2,800  Level Boston Center
11:19AM 41.6961 -71.5425 269° West 202 232 3,900 1,980 Climbing Boston Center
11:19AM 41.7139 -71.5900 297° West 271 312 4,800 2,220 Climbing Boston Center
11:20AM 41.7408 -71.6153 325° Northwest 257 296 6,200 2,820 Climbing Boston Center
11:21AM 41.8006 -71.6806 321° Northwest 260 299 9,100 2,220 Climbing Boston Center
11:22AM 41.8417 -71.7717 301° West 289 333 10,800 1,680 Climbing Boston Center
11:23AM 41.8811 -71.8733 298° West 303 349 12,600 1,620 Climbing Boston Center
11:24AM 41.9242 -71.9839 298° West 323 372 14,200 1,440 Climbing Boston Center
11:25AM 41.9708 -72.1083 297° West 348 400 15,600 1,260 Climbing Boston Center
11:26AM 42.0167 -72.2258 298° West 356 410 16,900 1,260 Climbing Boston Center
11:27AM 42.0661 -72.3556 297° West 361 415 18,300 1,200 Climbing Boston Center
11:28AM 42.1083 -72.4633 298° West 365 420 19,400 1,200 Climbing Boston Center
11:29AM 42.1542 -72.5847 297° West 366 421 20,800 1,200 Climbing Boston Center
11:30AM 42.1997 -72.7078 297° West 366 421 21,900 1,020 Climbing Boston Center
11:31AM 42.2561 -72.8561 297° West 366 421 23,000 540 Climbing Boston Center
11:32AM 42.3214 -72.9669 309° West 388 447 23,100 480 Climbing Boston Center
11:33AM 42.4269 -73.0253 338° Northwest 397 457 24,000 840 Climbing Boston Center
11:34AM 42.5339 -73.0844 338° Northwest 397 457 24,900 900 Climbing Boston Center
11:35AM 42.6364 -73.1411 338° Northwest 393 452 25,900 480 Climbing Boston Center
11:36AM 42.7394 -73.1994 337° Northwest 398 458 26,000  Climbing Boston Center
11:37AM 42.8478 -73.2611 337° Northwest 418 481 26,000 60 Level Boston Center
11:38AM 42.9564 -73.3317 335° Northwest 432 497 26,200 600 Climbing Boston Center
11:39AM 42.9992 -73.4906 290° West 406 467 27,300 840 Climbing Boston Center
11:40AM 43.0100 -73.6417 276° West 404 465 28,000 300 Climbing Boston Center
11:41AM 43.0203 -73.7933 275° West 403 464 28,000  Level Boston Center
11:42AM 43.0311 -73.9533 275° West 418 481 28,000  Level Boston Center
11:43AM 43.0422 -74.1150 275° West 425 489 28,000 60 Level Boston Center
11:44AM 43.0550 -74.3103 275° West 427 491 28,200 480 Climbing Boston Center
11:45AM 43.0650 -74.4686 275° West 424 488 29,100 840 Climbing Boston Center
11:46AM 43.0744 -74.6211 275° West 406 467 30,000 420 Climbing Boston Center
11:47AM 43.1486 -74.7325 312° West 408 470 30,000  Level Boston Center
11:48AM 43.2450 -74.8228 326° Northwest 419 482 30,000  Level Boston Center
11:50AM 43.3425 -74.9156 325° Northwest 426 490 30,000  Level Boston Center
11:51AM 43.4425 -75.0436 317° Northwest 427 491 30,000  Level Boston Center
11:52AM 43.4425 -75.1956 270° West 412 474 30,000  Level Boston Center
11:53AM 43.4244 -75.3467 261° West 416 479 30,000  Level Boston Center
11:54AM 43.4028 -75.4978 259° West 415 478 30,000  Level Boston Center
11:55AM 43.3775 -75.6819 259° West 414 476 30,000  Level Boston Center
11:56AM 43.3564 -75.8342 259° West 413 475 30,000  Level Boston Center
11:57AM 43.3353 -75.9872 259° West 412 474 30,000  Level Boston Center
11:58AM 43.3131 -76.1417 259° West 412 474 30,000  Level Boston Center
11:59AM 43.2908 -76.2969 259° West 413 475 30,000  Level Boston Center
12:00PM 43.2681 -76.4539 259° West 420 483 30,000  Level Boston Center
12:01PM 43.2403 -76.6419 259° West 420 483 30,000  Level Boston Center
12:02PM 43.2169 -76.8056 259° West 420 483 30,000  Level Boston Center
12:03PM 43.1944 -76.9628 259° West 421 484 30,000  Level Boston Center
12:03PM 43.1850 -77.0242 258° West 420 483 30,000  Level Cleveland Center
12:04PM 43.1558 -77.2125 258° West 421 484 30,000  Level Cleveland Center
12:05PM 43.1322 -77.3658 258° West 420 483 30,000  Level Cleveland Center
12:07PM 43.1097 -77.5175 259° West 416 479 30,000  Level Cleveland Center
12:08PM 43.0861 -77.6672 258° West 408 470 30,000  Level Cleveland Center
12:09PM 43.0628 -77.8183 258° West 409 471 30,000  Level Cleveland Center
12:10PM 43.0392 -77.9681 258° West 409 471 30,000  Level Cleveland Center
12:11PM 43.0108 -78.1472 258° West 408 470 30,000  Level Cleveland Center
12:12PM 42.9858 -78.2967 257° West 408 470 30,000  Level Cleveland Center
12:13PM 42.9617 -78.4497 258° West 412 474 30,000  Level Cleveland Center
12:14PM 42.9361 -78.5997 257° West 411 473 30,000  Level Cleveland Center
12:15PM 42.9136 -78.7492 258° West 409 471 30,000  Level Cleveland Center
12:16PM 42.8919 -78.8997 259° West 408 470 30,000  Level Cleveland Center
12:17PM 42.8653 -79.0794 259° West 407 468 30,000  Level Cleveland Center
12:18PM 42.8442 -79.2278 259° West 402 463 30,000 -360 Level Cleveland Center
12:19PM 42.8214 -79.3753 258° West 401 461 29,300 -840 Descending Cleveland Center
12:20PM 42.7986 -79.5247 258° West 405 466 28,300 -660 Descending Cleveland Center
12:21PM 42.7761 -79.6761 259° West 408 470 28,000 -180 Descending Cleveland Center
12:22PM 42.7511 -79.8567 259° West 408 470 28,000  Level Cleveland Center
12:23PM 42.7447 -80.0022 267° West 407 468 28,000  Level Cleveland Center
12:24PM 42.7381 -80.1572 267° West 406 467 28,000  Level Cleveland Center
12:25PM 42.7319 -80.3092 267° West 403 464 28,000  Level Cleveland Center
12:26PM 42.7256 -80.4622 267° West 403 464 28,000  Level Cleveland Center
12:27PM 42.7172 -80.6403 266° West 404 465 28,000 -420 Level Cleveland Center
12:28PM 42.7103 -80.7997 267° West 418 481 27,200 -960 Descending Cleveland Center
12:29PM 42.6989 -80.9589 264° West 420 483 26,100 -1,020 Descending Cleveland Center
12:30PM 42.6778 -81.1167 260° West 422 486 25,100 -1,020 Descending Cleveland Center
12:31PM 42.6425 -81.2650 252° West 415 478 24,100 -540 Descending Cleveland Center
12:32PM 42.6083 -81.4128 253° West 411 473 24,000 -60 Descending Cleveland Center
12:33PM 42.5700 -81.5850 253° West 406 467 24,000  Level Cleveland Center
12:34PM 42.5414 -81.7311 255° West 405 466 24,000  Level Cleveland Center
12:35PM 42.5353 -81.8703 267° West 413 475 24,000 -1,200 Level Cleveland Center
12:36PM 42.5281 -82.0253 266° West 412 474 21,500 -3,000 Descending Cleveland Center
12:38PM 42.5225 -82.2061 268° West 406 467 17,900 -3,300 Descending Cleveland Center
12:39PM 42.5161 -82.3522 267° West 396 456 14,800 -2,820 Descending Cleveland Center
12:40PM 42.5108 -82.4883 267° West 372 428 12,100 -1,380 Descending Cleveland Center
12:41PM 42.4836 -82.6111 253° West 346 398 12,000 -60 Descending Cleveland Center
12:42PM 42.4467 -82.7172 245° Southwest 321 369 12,000  Level Cleveland Center
12:43PM 42.4006 -82.8436 244° Southwest 312 359 12,100  Climbing Cleveland Center
12:44PM 42.3664 -82.9406 245° Southwest 316 364 12,000 -60 Descending Cleveland Center
12:45PM 42.3319 -83.0347 244° Southwest 301 346 12,000  Level Cleveland Center
12:45PM 42.3269 -83.0517 248° West 308 354 12,000  Level Cleveland Center
12:46PM 42.2878 -83.1400 239° Southwest 293 337 12,000 -60 Level Cleveland Center
12:47PM 42.2233 -83.1975 213° Southwest 261 300 11,900 -720 Descending Cleveland Center
12:48PM 42.1556 -83.2333 201° Southwest 264 304 10,600 -1,440 Descending Cleveland Center
12:49PM 42.0900 -83.2692 202° Southwest 232 267 9,000 -1,920 Descending Cleveland Center
12:50PM 42.0350 -83.3036 205° Southwest 240 276 6,900 -2,160 Descending Cleveland Center
12:50PM 42.0258 -83.3083 201° Southwest 241 277 6,600 -1,500 Descending Cleveland Center
12:51PM 42.0189 -83.3772 262° West 217 250 5,400 -1,380 Descending Cleveland Center
12:51PM 42.0200 -83.3872 279° West 225 259 5,200 -1,500 Descending Cleveland Center
12:52PM 42.0478 -83.4347 308° West 184 212 3,900 -1,560 Descending Cleveland Center
12:52PM 42.0556 -83.4356 355° North 200 230 3,600 -1,020 Descending Cleveland Center
12:53PM 42.0944 -83.4272 North 158 182 2,900 -840 Descending Cleveland Center
12:53PM 42.0992 -83.4233 31° Northeast 168 193 2,800 -600 Descending Cleveland Center
12:54PM 42.1281 -83.4011 30° Northeast 132 152 2,300 -600 Descending Cleveland Center
12:54PM 42.1322 -83.3992 19° North 141 162 2,200 -780 Descending Cleveland Center
12:55PM 42.1569 -83.3800 30° Northeast 134 154 1,600 -780 Descending Cleveland Center
12:55PM 42.1647 -83.3756 23° Northeast 137 158 1,400 -540 Descending Cleveland Center
12:56PM 42.1997 -83.3492 29° Northeast 137 158 900 -540 Descending Cleveland Center